createdAt,value
2022-09-09T00:02:29.095Z,6.7
2022-09-09T00:04:30.699Z,7.7
2022-09-09T00:14:43.185Z,3.7
2022-09-09T00:18:46.792Z,3.2
2022-09-09T00:20:48.539Z,2.9
2022-09-09T00:22:50.358Z,2.3
2022-09-09T00:24:52.135Z,2.4
2022-09-09T00:28:59.185Z,2.5
2022-09-09T00:31:01.030Z,1.7
2022-09-09T00:40:14.307Z,2.7
2022-09-09T00:42:16.102Z,2.8
2022-09-09T00:46:19.722Z,3.3
2022-09-09T00:48:21.455Z,2.8
2022-09-09T00:50:23.252Z,5.3
2022-09-09T00:52:25.047Z,2.8
2022-09-09T00:56:32.157Z,2.5
2022-09-09T01:00:35.765Z,2.9
2022-09-09T01:04:39.337Z,6.6
2022-09-09T01:06:41.169Z,3.3
2022-09-09T01:12:50.016Z,2.7
2022-09-09T01:14:51.802Z,3.5
2022-09-09T01:16:53.714Z,7.6
2022-09-09T01:18:55.404Z,3.5
2022-09-09T01:28:08.698Z,7.6
2022-09-09T01:30:10.508Z,5.2
2022-09-09T01:32:12.296Z,3.8
2022-09-09T01:36:19.345Z,4.8
2022-09-09T01:40:22.893Z,7.6
2022-09-09T01:42:24.697Z,5.2
2022-09-09T01:44:26.499Z,5.7
2022-09-09T01:46:28.413Z,4.4
2022-09-09T01:48:30.105Z,4.5
2022-09-09T01:50:35.371Z,5.7
2022-09-09T01:52:37.192Z,4.9
2022-09-09T01:54:38.959Z,9.9
2022-09-09T01:56:40.915Z,5.5
2022-09-09T01:58:42.561Z,5.3
2022-09-09T02:00:44.363Z,6.2
2022-09-09T02:02:46.202Z,6.4
2022-09-09T02:04:51.463Z,5.8
2022-09-09T02:10:56.816Z,5.9
2022-09-09T02:12:58.590Z,7.2
2022-09-09T02:15:00.363Z,5.6
2022-09-09T02:21:09.251Z,5.4
2022-09-09T02:24:13.692Z,5.3
2022-09-09T02:26:15.492Z,4.8
2022-09-09T02:28:17.279Z,10
2022-09-09T02:30:19.187Z,5.8
2022-09-09T02:32:24.380Z,6.8
2022-09-09T02:36:27.951Z,6.7
2022-09-09T02:40:31.556Z,5.8
2022-09-09T02:44:35.133Z,10.3
2022-09-09T02:46:40.619Z,5.5
2022-09-09T02:48:42.217Z,7.7
2022-09-09T02:50:45.667Z,9.5
2022-09-09T02:52:47.433Z,6
2022-09-09T02:54:49.237Z,8.4
2022-09-09T02:58:52.794Z,8.7
2022-09-09T03:00:58.116Z,19.8
2022-09-09T03:02:59.871Z,8.7
2022-09-09T03:05:01.656Z,7.5
2022-09-09T03:07:03.437Z,13.4
2022-09-09T03:09:05.247Z,12.2
2022-09-09T03:13:08.797Z,19
2022-09-09T03:15:14.126Z,13
2022-09-09T03:17:15.882Z,10.7
2022-09-09T03:19:17.685Z,20.1
2022-09-09T03:21:35.337Z,14.5
2022-09-09T03:23:37.101Z,9
2022-09-09T03:25:38.872Z,10.4
2022-09-09T03:27:44.167Z,14.4
2022-09-09T03:37:53.006Z,15
2022-09-09T03:44:01.875Z,17
2022-09-09T03:46:03.775Z,23.6
2022-09-09T03:48:05.512Z,19
2022-09-09T03:52:09.010Z,22.8
2022-09-09T03:58:17.855Z,15.2
2022-09-09T04:00:19.602Z,18.1
2022-09-09T04:02:21.424Z,15.1
2022-09-09T04:06:24.936Z,16.1
2022-09-09T04:08:26.715Z,19
2022-09-09T04:10:32.003Z,28.2
2022-09-09T04:12:33.792Z,24.2
2022-09-09T04:14:35.564Z,16
2022-09-09T04:15:38.208Z,23.1
2022-09-09T04:17:39.991Z,38.3
2022-09-09T04:19:41.774Z,27.9
2022-09-09T04:21:43.583Z,21.3
2022-09-09T04:23:48.857Z,30.1
2022-09-09T04:25:50.662Z,39.9
2022-09-09T04:27:52.444Z,26.9
2022-09-09T04:29:54.184Z,33.8
2022-09-09T04:31:56.052Z,27
2022-09-09T04:33:57.754Z,35.8
2022-09-09T04:35:59.546Z,28.4
2022-09-09T04:38:04.845Z,37.3
2022-09-09T04:40:06.682Z,29.6
2022-09-09T04:42:08.404Z,36.3
2022-09-09T04:48:13.708Z,37.8
2022-09-09T04:50:15.509Z,32.6
2022-09-09T04:54:22.587Z,39.7
2022-09-09T04:56:24.356Z,29.2
2022-09-09T04:58:26.170Z,38.7
2022-09-09T05:00:28.064Z,38.5
2022-09-09T05:04:31.541Z,29.7
2022-09-09T05:06:36.816Z,33.2
2022-09-09T05:08:38.585Z,35.2
2022-09-09T05:10:40.341Z,47.4
2022-09-09T05:11:42.973Z,38.4
2022-09-09T05:15:46.517Z,33.3
2022-09-09T05:17:48.302Z,40
2022-09-09T05:21:55.337Z,37.3
2022-09-09T05:23:57.107Z,41.7
2022-09-09T05:25:59.462Z,34.9
2022-09-09T05:28:00.673Z,40.4
2022-09-09T05:30:25.375Z,40.7
2022-09-09T05:32:04.165Z,49.4
2022-09-09T05:34:09.468Z,126.1
2022-09-09T05:38:13.017Z,51.8
2022-09-09T05:40:14.931Z,43.4
2022-09-09T05:42:16.569Z,49.4
2022-09-09T05:44:18.327Z,48
2022-09-09T05:50:31.452Z,67.2
2022-09-09T05:52:28.925Z,44.7
2022-09-09T05:54:31.793Z,45.8
2022-09-09T05:56:32.529Z,54.8
2022-09-09T05:58:34.353Z,51.4
2022-09-09T06:00:36.089Z,50.2
2022-09-09T06:04:43.147Z,49.5
2022-09-09T06:06:44.962Z,45.7
2022-09-09T06:07:47.567Z,41.5
2022-09-09T06:13:52.952Z,54.5
2022-09-09T06:20:13.400Z,55.7
2022-09-09T06:30:14.326Z,41.1
2022-09-09T06:32:16.105Z,45.1
2022-09-09T06:34:17.900Z,57.5
2022-09-09T06:40:23.271Z,57.7
2022-09-09T06:44:34.958Z,67.2
2022-09-09T06:46:32.238Z,39.4
2022-09-09T06:50:35.725Z,47.1
2022-09-09T06:52:37.487Z,43
2022-09-09T06:56:41.091Z,34
2022-09-09T06:58:46.319Z,48.6
2022-09-09T07:00:48.211Z,39.8
2022-09-09T07:02:49.933Z,34.9
2022-09-09T07:07:09.649Z,25.2
2022-09-09T07:09:11.455Z,23.3
2022-09-09T07:11:16.734Z,35.8
2022-09-09T07:13:18.530Z,22.5
2022-09-09T07:15:20.366Z,42.9
2022-09-09T07:17:22.160Z,23.3
2022-09-09T07:19:23.961Z,20
2022-09-09T07:21:25.743Z,22.2
2022-09-09T07:23:27.557Z,21.6
2022-09-09T07:25:32.836Z,44.6
2022-09-09T07:27:34.653Z,17.7
2022-09-09T07:29:36.438Z,6.4
2022-09-09T07:31:38.330Z,12.1
2022-09-09T07:33:40.027Z,8.2
2022-09-09T07:37:45.749Z,14.3
2022-09-09T07:39:48.966Z,6.7
2022-09-09T07:41:50.700Z,5.2
2022-09-09T07:43:52.518Z,6.5
2022-09-09T07:45:54.321Z,6.2
2022-09-09T07:47:56.125Z,7.4
2022-09-09T07:49:57.922Z,3.9
2022-09-09T07:51:59.779Z,12.8
2022-09-09T07:54:04.998Z,5.2
2022-09-09T07:56:06.791Z,5.6
2022-09-09T07:58:08.613Z,4.3
2022-09-09T07:59:11.263Z,9.8
2022-09-09T08:03:14.879Z,1.8
2022-09-09T08:11:25.550Z,7.9
2022-09-09T08:13:27.362Z,6.6
2022-09-09T08:19:32.751Z,4.1
2022-09-09T08:27:43.440Z,4.7
2022-09-09T08:33:53.179Z,6.7
2022-09-09T08:35:54.148Z,4.8
2022-09-09T08:37:55.924Z,2.2
2022-09-09T08:44:03.000Z,4.5
2022-09-09T08:50:13.446Z,1
2022-09-09T08:52:15.258Z,4.5
2022-09-09T08:54:30.099Z,5.2
2022-09-09T08:59:23.293Z,3.6
2022-09-09T09:01:25.201Z,12.2
2022-09-09T09:03:30.398Z,6.2
2022-09-09T09:07:33.984Z,5.7
2022-09-09T09:13:43.529Z,5.7
2022-09-09T09:15:41.309Z,3.8
2022-09-09T09:17:46.481Z,6.4
2022-09-09T09:19:48.300Z,6
2022-09-09T09:21:50.121Z,3.9
2022-09-09T09:25:53.758Z,3.4
2022-09-09T09:27:55.569Z,7.8
2022-09-09T09:32:02.711Z,9
2022-09-09T09:34:04.498Z,7
2022-09-09T09:40:09.917Z,5.2
2022-09-09T09:42:11.691Z,5.7
2022-09-09T09:44:13.495Z,7.3
2022-09-09T09:48:20.593Z,6
2022-09-09T09:50:22.405Z,6.9
2022-09-09T09:51:25.041Z,3.9
2022-09-09T09:53:26.844Z,9.5
2022-09-09T09:55:28.622Z,4.9
2022-09-09T09:57:30.435Z,11.2
2022-09-09T09:59:39.657Z,6.1
2022-09-09T10:01:37.584Z,1.9
2022-09-09T10:04:15.801Z,11.2
2022-09-09T10:06:50.928Z,4.1
2022-09-09T10:07:42.920Z,3.6
2022-09-09T10:09:44.717Z,4.5
2022-09-09T10:11:46.511Z,9.7
2022-09-09T10:15:53.656Z,8.4
2022-09-09T10:17:55.434Z,3.5
2022-09-09T10:19:57.214Z,2.5
2022-09-09T10:21:59.028Z,3.6
2022-09-09T10:24:00.815Z,5.9
2022-09-09T10:26:02.645Z,6.7
2022-09-09T10:28:07.928Z,8.1
2022-09-09T10:30:09.748Z,4.8
2022-09-09T10:34:13.319Z,3
2022-09-09T10:38:16.950Z,4.1
2022-09-09T10:40:18.778Z,2.3
2022-09-09T10:42:24.038Z,3.5
2022-09-09T10:44:25.835Z,1.4
2022-09-09T10:46:27.797Z,1.3
2022-09-09T10:52:54.963Z,7.9
2022-09-09T10:57:02.077Z,2.3
2022-09-09T10:59:03.860Z,2.3
2022-09-09T11:01:05.736Z,10.4
2022-09-09T11:03:07.441Z,4.9
2022-09-09T11:05:09.244Z,1.9
2022-09-09T11:07:12.110Z,5.3
2022-09-09T11:11:18.168Z,3.9
2022-09-09T11:13:19.975Z,5.7
2022-09-09T11:15:21.759Z,7.5
2022-09-09T11:17:23.559Z,2.3
2022-09-09T11:19:26.420Z,3.5
2022-09-09T11:23:32.448Z,3.4
2022-09-09T11:25:34.266Z,3.9
2022-09-09T11:27:36.057Z,3.5
2022-09-09T11:31:39.717Z,2.2
2022-09-09T11:35:43.287Z,2.2
2022-09-09T11:37:48.594Z,6.6
2022-09-09T11:41:52.210Z,2.2
2022-09-09T11:42:54.853Z,4.3
2022-09-09T11:46:58.495Z,7.3
2022-09-09T11:49:45.863Z,11.3
2022-09-09T11:53:07.346Z,15
2022-09-09T11:55:09.148Z,2.3
2022-09-09T11:59:12.756Z,3.5
2022-09-09T12:01:14.546Z,1.6
2022-09-09T12:03:16.339Z,4.3
2022-09-09T12:05:21.776Z,3.2
2022-09-09T12:07:23.491Z,3.2
2022-09-09T12:09:25.268Z,5.5
2022-09-09T12:11:27.132Z,4.1
2022-09-09T12:15:30.671Z,3.2
2022-09-09T12:17:32.446Z,1.4
2022-09-09T12:19:37.760Z,7.1
2022-09-09T12:21:39.583Z,6.5
2022-09-09T12:23:41.374Z,2.1
2022-09-09T12:25:43.160Z,1.8
2022-09-09T12:31:48.555Z,3.5
2022-09-09T12:33:53.877Z,3.3
2022-09-09T12:35:55.698Z,3.7
2022-09-09T12:37:57.467Z,1
2022-09-09T12:39:00.139Z,1.7
2022-09-09T12:43:03.737Z,1.3
2022-09-09T12:45:05.509Z,1
2022-09-09T12:51:14.431Z,5.5
2022-09-09T12:53:16.186Z,2.2
2022-09-09T12:55:18.008Z,3.5
2022-09-09T12:57:19.816Z,1.4
2022-09-09T12:59:21.615Z,2.3
2022-09-09T13:01:26.999Z,1.3
2022-09-09T13:03:28.720Z,2
2022-09-09T13:05:30.521Z,4
2022-09-09T13:07:32.321Z,1
2022-09-09T13:09:34.112Z,1.4
2022-09-09T13:13:37.948Z,2.6
2022-09-09T13:15:43.064Z,0.8
2022-09-09T13:19:46.619Z,3.2
2022-09-09T13:23:50.228Z,4.2
2022-09-09T13:25:52.010Z,2.4
2022-09-09T13:27:54.285Z,2.3
2022-09-09T13:30:00.879Z,0.7
2022-09-09T13:34:02.718Z,2
2022-09-09T13:35:05.416Z,2.8
2022-09-09T13:37:07.209Z,1.7
2022-09-09T13:39:08.967Z,2.1
2022-09-09T13:41:10.810Z,1.1
2022-09-09T13:43:16.048Z,1.9
2022-09-09T13:45:17.841Z,9.9
2022-09-09T13:47:19.673Z,3.9
2022-09-09T13:49:21.450Z,0.9
2022-09-09T13:51:23.269Z,3.2
2022-09-09T13:53:25.046Z,1.6
2022-09-09T13:55:26.841Z,1.6
2022-09-09T14:01:35.799Z,3.9
2022-09-09T14:03:37.637Z,0.4
2022-09-09T14:05:39.422Z,3.7
2022-09-09T14:07:41.198Z,4.4
2022-09-09T14:09:42.942Z,2.9
2022-09-09T14:13:50.040Z,2.8
2022-09-09T14:15:51.915Z,4.2
2022-09-09T14:17:53.647Z,1.1
2022-09-09T14:19:55.442Z,1.2
2022-09-09T14:21:57.253Z,2.1
2022-09-09T14:26:04.363Z,2.3
2022-09-09T14:28:06.148Z,1.6
2022-09-09T14:34:32.999Z,2.7
2022-09-09T14:36:35.286Z,1.1
2022-09-09T14:40:42.325Z,1
2022-09-09T14:48:49.821Z,2.4
2022-09-09T14:50:51.379Z,2.9
2022-09-09T14:52:56.659Z,2
2022-09-09T14:54:58.489Z,1.6
2022-09-09T14:57:00.482Z,3.1
2022-09-09T14:59:02.070Z,1.2
2022-09-09T15:01:03.923Z,3.3
2022-09-09T15:03:05.744Z,5.5
2022-09-09T15:05:07.497Z,1.4
2022-09-09T15:07:12.905Z,1.5
2022-09-09T15:09:14.637Z,1.3
2022-09-09T15:11:16.397Z,3.3
2022-09-09T15:13:18.203Z,1.7
2022-09-09T15:15:20.019Z,1.6
2022-09-09T15:17:21.807Z,1.6
2022-09-09T15:19:23.616Z,1.7
2022-09-09T15:25:32.523Z,1.2
2022-09-09T15:26:35.175Z,3.4
2022-09-09T15:28:36.999Z,2.9
2022-09-09T15:30:38.810Z,0.5
2022-09-09T15:32:40.574Z,2.1
2022-09-09T15:34:45.856Z,1.1
2022-09-09T15:36:47.657Z,5.6
2022-09-09T15:38:49.472Z,3.4
2022-09-09T15:42:53.053Z,1.5
2022-09-09T15:44:54.848Z,2.6
2022-09-09T15:51:10.903Z,1.7
2022-09-09T15:55:07.344Z,2.1
2022-09-09T15:57:09.138Z,5.2
2022-09-09T16:01:12.782Z,1.6
2022-09-09T16:05:19.872Z,1.3
2022-09-09T16:07:21.628Z,2.6
2022-09-09T16:09:23.416Z,3.3
2022-09-09T16:11:25.214Z,2.7
2022-09-09T16:13:27.017Z,1.8
2022-09-09T16:17:34.110Z,3.3
2022-09-09T16:22:40.402Z,1.6
2022-09-09T16:24:42.137Z,2.1
2022-09-09T16:26:43.968Z,5.5
2022-09-09T16:28:45.769Z,1.6
2022-09-09T16:30:51.142Z,3.2
2022-09-09T16:32:52.865Z,2.9
2022-09-09T16:34:54.689Z,4.3
2022-09-09T16:36:56.613Z,1.3
2022-09-09T16:43:01.899Z,2.2
2022-09-09T16:45:07.204Z,2.1
2022-09-09T16:47:09.003Z,2.8
2022-09-09T16:55:16.210Z,1.7
2022-09-09T17:03:26.979Z,3.4
2022-09-09T17:07:30.572Z,6.9
2022-09-09T17:13:39.522Z,3.1
2022-09-09T17:15:41.508Z,1.4
2022-09-09T17:18:45.814Z,3.2
2022-09-09T17:20:47.630Z,0.9
2022-09-09T17:22:49.421Z,0.7
2022-09-09T17:24:51.220Z,2.2
2022-09-09T17:26:56.648Z,1.8
2022-09-09T17:28:59.615Z,2.1
2022-09-09T17:39:07.379Z,1.8
2022-09-09T17:47:18.151Z,3.9
2022-09-09T17:51:21.681Z,1.2
2022-09-09T17:53:23.492Z,2.1
2022-09-09T18:03:36.097Z,10.6
2022-09-09T18:07:39.676Z,2.1
2022-09-09T18:11:46.812Z,3.6
2022-09-09T18:13:48.608Z,8.9
2022-09-09T18:16:06.435Z,4.3
2022-09-09T18:18:08.166Z,6.3
2022-09-09T18:20:09.993Z,11.2
2022-09-09T18:24:17.130Z,2.8
2022-09-09T18:28:24.529Z,6.2
2022-09-09T18:32:24.341Z,4.1
2022-09-09T18:34:26.172Z,4.8
2022-09-09T18:36:31.432Z,3.8
2022-09-09T18:38:33.339Z,4.2
2022-09-09T18:40:35.070Z,4.9
2022-09-09T18:42:36.877Z,6.3
2022-09-09T18:44:38.663Z,2.6
2022-09-09T18:54:51.292Z,2.2
2022-09-09T19:00:56.772Z,2.8
2022-09-09T19:02:58.511Z,3.2
2022-09-09T19:05:03.849Z,4.3
2022-09-09T19:07:05.632Z,5.9
2022-09-09T19:09:07.465Z,2.7
2022-09-09T19:10:10.132Z,2.5
2022-09-09T19:12:11.919Z,2.7
2022-09-09T19:14:13.763Z,3.4
2022-09-09T19:18:20.873Z,3.7
2022-09-09T19:20:22.662Z,2.6
2022-09-09T19:22:24.453Z,7.2
2022-09-09T19:24:26.255Z,2.9
2022-09-09T19:26:28.068Z,3.5
2022-09-09T19:28:29.917Z,2.9
2022-09-09T19:30:31.734Z,2.8
2022-09-09T19:32:52.800Z,5.2
2022-09-09T19:34:38.821Z,6.7
2022-09-09T19:36:40.637Z,3.4
2022-09-09T19:40:44.236Z,2.8
2022-09-09T19:42:46.031Z,3.5
2022-09-09T19:44:47.858Z,4.7
2022-09-09T19:46:53.156Z,3.7
2022-09-09T19:50:56.765Z,4.1
2022-09-09T19:55:00.414Z,3.9
2022-09-09T19:57:16.242Z,4.4
2022-09-09T19:59:03.977Z,3.8
2022-09-09T20:03:19.122Z,5.7
2022-09-09T20:05:12.860Z,6.9
2022-09-09T20:06:15.540Z,5.1
2022-09-09T20:14:26.191Z,12.1
2022-09-09T20:23:59.866Z,6.8
2022-09-09T20:26:37.049Z,7.2
2022-09-09T20:30:45.870Z,8.2
2022-09-09T20:34:49.422Z,8.7
2022-09-09T20:36:51.243Z,9.4
2022-09-09T20:43:00.112Z,11
2022-09-09T20:45:01.915Z,11.3
2022-09-09T20:47:03.829Z,10.7
2022-09-09T20:51:07.352Z,11.9
2022-09-09T20:55:10.968Z,11.9
2022-09-09T20:59:18.053Z,15.9
2022-09-09T21:02:22.544Z,14.9
2022-09-09T21:04:28.006Z,20
2022-09-09T21:06:26.177Z,14.6
2022-09-09T21:14:38.437Z,14.3
2022-09-09T21:18:40.465Z,16.4
2022-09-09T21:20:42.272Z,22.5
2022-09-09T21:22:44.079Z,20.8
2022-09-09T21:32:56.659Z,15.4
2022-09-09T21:34:58.469Z,16.7
2022-09-09T21:39:05.546Z,18
2022-09-09T21:57:25.259Z,19.3
2022-09-09T21:59:48.480Z,19
2022-09-09T22:05:57.347Z,33.3
2022-09-09T22:07:59.154Z,16.5
2022-09-09T22:12:02.773Z,21.2
2022-09-09T22:18:08.144Z,18.3
2022-09-09T22:22:15.235Z,20.3
2022-09-09T22:24:17.046Z,19.4
2022-09-09T22:26:18.831Z,16.5
2022-09-09T22:28:20.633Z,16.6
2022-09-09T22:34:29.573Z,18.7
2022-09-09T22:36:31.372Z,17.9
2022-09-09T22:40:34.959Z,20.8
2022-09-09T22:42:36.790Z,21.6
2022-09-09T22:44:38.564Z,21.1
2022-09-09T22:46:40.398Z,29.6
2022-09-09T22:57:55.488Z,26.7
2022-09-09T22:59:57.280Z,22.9
2022-09-09T23:02:02.681Z,27.6
2022-09-09T23:06:06.202Z,32.4
2022-09-09T23:10:09.787Z,30.6
2022-09-09T23:12:11.556Z,27
2022-09-09T23:14:13.392Z,26.1
2022-09-09T23:18:20.449Z,28.6
2022-09-09T23:20:22.257Z,32.5
2022-09-09T23:22:24.081Z,30.3
2022-09-09T23:26:27.706Z,32.8
2022-09-09T23:28:29.514Z,30.8
2022-09-09T23:30:34.824Z,33.3
2022-09-09T23:34:38.444Z,30.1
2022-09-09T23:38:42.016Z,31.9
2022-09-09T23:40:43.811Z,29.4
2022-09-09T23:42:45.586Z,25.6
2022-09-09T23:44:50.899Z,43.9
2022-09-09T23:46:52.723Z,33.7
2022-09-09T23:48:54.525Z,29.4
2022-09-09T23:49:57.170Z,24.2
2022-09-09T23:51:58.993Z,30.4
